sensor_id;sensor_type;location;lat;lon;timestamp;temperature;humidity
12911;DHT22;6523;49.758;6.120;2023-03-04T00:01:40;-2.30;99.90
12911;DHT22;6523;49.758;6.120;2023-03-04T00:04:05;-2.20;99.90
12911;DHT22;6523;49.758;6.120;2023-03-04T00:06:31;-2.30;99.90
12911;DHT22;6523;49.758;6.120;2023-03-04T00:08:57;-2.40;99.90
12911;DHT22;6523;49.758;6.120;2023-03-04T00:11:23;-2.60;99.90
12911;DHT22;6523;49.758;6.120;2023-03-04T00:13:48;-2.50;99.90
12911;DHT22;6523;49.758;6.120;2023-03-04T00:16:14;-2.50;99.90
12911;DHT22;6523;49.758;6.120;2023-03-04T00:18:39;-2.60;99.90
12911;DHT22;6523;49.758;6.120;2023-03-04T00:21:05;-2.60;99.90
12911;DHT22;6523;49.758;6.120;2023-03-04T00:23:31;-2.70;99.90
12911;DHT22;6523;49.758;6.120;2023-03-04T00:25:56;-2.80;99.90
12911;DHT22;6523;49.758;6.120;2023-03-04T00:28:22;-2.70;99.90
12911;DHT22;6523;49.758;6.120;2023-03-04T00:30:47;-2.50;99.90
12911;DHT22;6523;49.758;6.120;2023-03-04T00:33:13;-2.60;99.90
12911;DHT22;6523;49.758;6.120;2023-03-04T00:35:39;-2.70;99.90
12911;DHT22;6523;49.758;6.120;2023-03-04T00:38:04;-3.30;99.90
12911;DHT22;6523;49.758;6.120;2023-03-04T00:40:30;-3.40;99.90
12911;DHT22;6523;49.758;6.120;2023-03-04T00:42:55;-3.10;99.90
12911;DHT22;6523;49.758;6.120;2023-03-04T00:45:21;-2.90;99.90
12911;DHT22;6523;49.758;6.120;2023-03-04T00:47:47;-2.80;99.90
12911;DHT22;6523;49.758;6.120;2023-03-04T00:50:12;-2.90;99.90
12911;DHT22;6523;49.758;6.120;2023-03-04T00:52:38;-2.80;99.90
12911;DHT22;6523;49.758;6.120;2023-03-04T00:55:04;-2.90;99.90
12911;DHT22;6523;49.758;6.120;2023-03-04T00:57:30;-2.90;99.90
12911;DHT22;6523;49.758;6.120;2023-03-04T00:59:55;-2.90;99.90
12911;DHT22;6523;49.758;6.120;2023-03-04T01:02:21;-3.00;99.90
12911;DHT22;6523;49.758;6.120;2023-03-04T01:04:46;-3.50;99.90
12911;DHT22;6523;49.758;6.120;2023-03-04T01:07:12;-3.30;99.90
12911;DHT22;6523;49.758;6.120;2023-03-04T01:09:38;-3.20;99.90
12911;DHT22;6523;49.758;6.120;2023-03-04T01:12:04;-3.20;99.90
12911;DHT22;6523;49.758;6.120;2023-03-04T01:14:30;-3.30;99.90
12911;DHT22;6523;49.758;6.120;2023-03-04T01:16:55;-3.50;99.90
12911;DHT22;6523;49.758;6.120;2023-03-04T01:19:21;-3.60;99.90
12911;DHT22;6523;49.758;6.120;2023-03-04T01:21:47;-3.30;99.90
12911;DHT22;6523;49.758;6.120;2023-03-04T01:24:12;-3.70;99.90
12911;DHT22;6523;49.758;6.120;2023-03-04T01:26:38;-3.60;99.90
12911;DHT22;6523;49.758;6.120;2023-03-04T01:29:03;-3.40;99.90
12911;DHT22;6523;49.758;6.120;2023-03-04T01:31:29;-3.30;99.90
12911;DHT22;6523;49.758;6.120;2023-03-04T01:33:55;-3.40;99.90
12911;DHT22;6523;49.758;6.120;2023-03-04T01:36:20;-3.60;99.90
12911;DHT22;6523;49.758;6.120;2023-03-04T01:38:46;-3.40;99.90
12911;DHT22;6523;49.758;6.120;2023-03-04T01:41:12;-3.30;99.90
12911;DHT22;6523;49.758;6.120;2023-03-04T01:43:38;-3.30;99.90
12911;DHT22;6523;49.758;6.120;2023-03-04T01:46:05;-3.40;99.90
12911;DHT22;6523;49.758;6.120;2023-03-04T01:48:34;-3.80;99.90
12911;DHT22;6523;49.758;6.120;2023-03-04T01:51:02;-3.90;99.90
12911;DHT22;6523;49.758;6.120;2023-03-04T01:53:29;-3.90;99.90
12911;DHT22;6523;49.758;6.120;2023-03-04T01:55:58;-4.00;99.90
12911;DHT22;6523;49.758;6.120;2023-03-04T01:58:28;-4.20;99.90
12911;DHT22;6523;49.758;6.120;2023-03-04T02:00:54;-3.80;99.90
12911;DHT22;6523;49.758;6.120;2023-03-04T02:03:20;-3.70;99.90
12911;DHT22;6523;49.758;6.120;2023-03-04T02:05:48;-3.80;99.90
12911;DHT22;6523;49.758;6.120;2023-03-04T02:08:15;-3.70;99.90
12911;DHT22;6523;49.758;6.120;2023-03-04T02:10:42;-3.90;99.90
12911;DHT22;6523;49.758;6.120;2023-03-04T02:13:08;-4.10;99.90
12911;DHT22;6523;49.758;6.120;2023-03-04T02:15:34;-4.30;99.90
12911;DHT22;6523;49.758;6.120;2023-03-04T02:18:01;-4.00;99.90
12911;DHT22;6523;49.758;6.120;2023-03-04T02:20:38;-4.00;99.90
12911;DHT22;6523;49.758;6.120;2023-03-04T02:23:25;-4.10;99.90
12911;DHT22;6523;49.758;6.120;2023-03-04T02:26:18;-4.10;99.90
12911;DHT22;6523;49.758;6.120;2023-03-04T02:28:46;-4.30;99.90
12911;DHT22;6523;49.758;6.120;2023-03-04T02:31:33;-4.50;99.90
12911;DHT22;6523;49.758;6.120;2023-03-04T02:34:01;-4.70;99.90
12911;DHT22;6523;49.758;6.120;2023-03-04T02:36:28;-4.70;99.90
12911;DHT22;6523;49.758;6.120;2023-03-04T02:38:54;-4.90;99.90
12911;DHT22;6523;49.758;6.120;2023-03-04T02:41:25;-4.80;99.90
12911;DHT22;6523;49.758;6.120;2023-03-04T02:43:54;-4.90;99.90
12911;DHT22;6523;49.758;6.120;2023-03-04T02:46:21;-4.90;99.90
12911;DHT22;6523;49.758;6.120;2023-03-04T02:48:47;-4.80;99.90
12911;DHT22;6523;49.758;6.120;2023-03-04T02:51:12;-5.00;99.90
12911;DHT22;6523;49.758;6.120;2023-03-04T02:53:38;-4.70;99.90
12911;DHT22;6523;49.758;6.120;2023-03-04T02:56:04;-4.60;99.90
12911;DHT22;6523;49.758;6.120;2023-03-04T02:58:29;-4.40;99.90
12911;DHT22;6523;49.758;6.120;2023-03-04T03:00:55;-4.10;99.90
12911;DHT22;6523;49.758;6.120;2023-03-04T03:03:21;-3.90;99.90
12911;DHT22;6523;49.758;6.120;2023-03-04T03:05:46;-3.80;99.90
12911;DHT22;6523;49.758;6.120;2023-03-04T03:08:12;-4.00;99.90
12911;DHT22;6523;49.758;6.120;2023-03-04T03:10:37;-4.30;99.90
12911;DHT22;6523;49.758;6.120;2023-03-04T03:13:03;-4.40;99.90
12911;DHT22;6523;49.758;6.120;2023-03-04T03:15:29;-4.50;99.90
12911;DHT22;6523;49.758;6.120;2023-03-04T03:17:55;-4.40;99.90
12911;DHT22;6523;49.758;6.120;2023-03-04T03:20:20;-4.20;99.90
12911;DHT22;6523;49.758;6.120;2023-03-04T03:22:46;-4.20;99.90
12911;DHT22;6523;49.758;6.120;2023-03-04T03:25:14;-4.10;99.90
12911;DHT22;6523;49.758;6.120;2023-03-04T03:27:40;-4.00;99.90
12911;DHT22;6523;49.758;6.120;2023-03-04T03:30:06;-3.90;99.90
12911;DHT22;6523;49.758;6.120;2023-03-04T03:32:33;-3.80;99.90
12911;DHT22;6523;49.758;6.120;2023-03-04T03:34:58;-3.80;99.90
12911;DHT22;6523;49.758;6.120;2023-03-04T03:37:24;-3.60;99.90
12911;DHT22;6523;49.758;6.120;2023-03-04T03:39:50;-3.50;99.90
12911;DHT22;6523;49.758;6.120;2023-03-04T03:42:15;-3.40;99.90
12911;DHT22;6523;49.758;6.120;2023-03-04T03:44:41;-3.40;99.90
12911;DHT22;6523;49.758;6.120;2023-03-04T03:47:06;-3.40;99.90
12911;DHT22;6523;49.758;6.120;2023-03-04T03:49:32;-3.40;99.90
12911;DHT22;6523;49.758;6.120;2023-03-04T03:51:57;-3.40;99.90
12911;DHT22;6523;49.758;6.120;2023-03-04T03:54:23;-3.50;99.90
12911;DHT22;6523;49.758;6.120;2023-03-04T03:56:48;-3.40;99.90
12911;DHT22;6523;49.758;6.120;2023-03-04T03:59:14;-3.40;99.90
12911;DHT22;6523;49.758;6.120;2023-03-04T04:01:40;-3.30;99.90
12911;DHT22;6523;49.758;6.120;2023-03-04T04:04:05;-3.20;99.90
12911;DHT22;6523;49.758;6.120;2023-03-04T04:06:31;-3.20;99.90
12911;DHT22;6523;49.758;6.120;2023-03-04T04:08:57;-3.10;99.90
12911;DHT22;6523;49.758;6.120;2023-03-04T04:11:22;-3.20;99.90
12911;DHT22;6523;49.758;6.120;2023-03-04T04:13:48;-3.10;99.90
12911;DHT22;6523;49.758;6.120;2023-03-04T04:16:13;-3.10;99.90
12911;DHT22;6523;49.758;6.120;2023-03-04T04:18:39;-2.90;99.90
12911;DHT22;6523;49.758;6.120;2023-03-04T04:21:04;-2.80;99.90
12911;DHT22;6523;49.758;6.120;2023-03-04T04:23:30;-2.80;99.90
12911;DHT22;6523;49.758;6.120;2023-03-04T04:25:56;-2.80;99.90
12911;DHT22;6523;49.758;6.120;2023-03-04T04:28:22;-2.80;99.90
12911;DHT22;6523;49.758;6.120;2023-03-04T04:30:48;-2.80;99.90
12911;DHT22;6523;49.758;6.120;2023-03-04T04:33:14;-2.90;99.90
12911;DHT22;6523;49.758;6.120;2023-03-04T04:35:40;-2.80;99.90
12911;DHT22;6523;49.758;6.120;2023-03-04T04:38:06;-2.80;99.90
12911;DHT22;6523;49.758;6.120;2023-03-04T04:40:32;-2.80;99.90
12911;DHT22;6523;49.758;6.120;2023-03-04T04:42:58;-2.80;99.90
12911;DHT22;6523;49.758;6.120;2023-03-04T04:45:23;-2.70;99.90
12911;DHT22;6523;49.758;6.120;2023-03-04T04:47:52;-2.60;99.90
12911;DHT22;6523;49.758;6.120;2023-03-04T04:50:18;-2.60;99.90
12911;DHT22;6523;49.758;6.120;2023-03-04T04:52:44;-2.60;99.90
12911;DHT22;6523;49.758;6.120;2023-03-04T04:55:10;-2.60;99.90
12911;DHT22;6523;49.758;6.120;2023-03-04T04:57:36;-2.60;99.90
12911;DHT22;6523;49.758;6.120;2023-03-04T05:00:03;-2.60;99.90
12911;DHT22;6523;49.758;6.120;2023-03-04T05:02:28;-2.50;99.90
12911;DHT22;6523;49.758;6.120;2023-03-04T05:04:54;-2.40;99.90
12911;DHT22;6523;49.758;6.120;2023-03-04T05:07:19;-2.30;99.90
12911;DHT22;6523;49.758;6.120;2023-03-04T05:09:45;-2.40;99.90
12911;DHT22;6523;49.758;6.120;2023-03-04T05:12:10;-2.40;99.90
12911;DHT22;6523;49.758;6.120;2023-03-04T05:14:36;-2.40;99.90
12911;DHT22;6523;49.758;6.120;2023-03-04T05:17:02;-2.40;99.90
12911;DHT22;6523;49.758;6.120;2023-03-04T05:19:28;-2.40;99.90
12911;DHT22;6523;49.758;6.120;2023-03-04T05:21:54;-2.30;99.90
12911;DHT22;6523;49.758;6.120;2023-03-04T05:24:19;-2.30;99.90
12911;DHT22;6523;49.758;6.120;2023-03-04T05:26:45;-2.30;99.90
12911;DHT22;6523;49.758;6.120;2023-03-04T05:29:10;-2.20;99.90
12911;DHT22;6523;49.758;6.120;2023-03-04T05:31:36;-2.20;99.90
12911;DHT22;6523;49.758;6.120;2023-03-04T05:34:02;-2.10;99.90
12911;DHT22;6523;49.758;6.120;2023-03-04T05:36:27;-2.10;99.90
12911;DHT22;6523;49.758;6.120;2023-03-04T05:38:53;-2.10;99.90
12911;DHT22;6523;49.758;6.120;2023-03-04T05:41:18;-2.00;99.90
12911;DHT22;6523;49.758;6.120;2023-03-04T05:43:47;-2.00;99.90
12911;DHT22;6523;49.758;6.120;2023-03-04T05:46:14;-1.90;99.90
12911;DHT22;6523;49.758;6.120;2023-03-04T05:48:40;-1.90;99.90
12911;DHT22;6523;49.758;6.120;2023-03-04T05:51:06;-2.00;99.90
12911;DHT22;6523;49.758;6.120;2023-03-04T05:53:31;-2.00;99.90
12911;DHT22;6523;49.758;6.120;2023-03-04T05:55:57;-2.00;99.90
12911;DHT22;6523;49.758;6.120;2023-03-04T05:58:24;-2.00;99.90
12911;DHT22;6523;49.758;6.120;2023-03-04T06:00:50;-2.00;99.90
12911;DHT22;6523;49.758;6.120;2023-03-04T06:03:18;-1.80;99.90
12911;DHT22;6523;49.758;6.120;2023-03-04T06:05:44;-1.80;99.90
12911;DHT22;6523;49.758;6.120;2023-03-04T06:08:11;-1.80;99.90
12911;DHT22;6523;49.758;6.120;2023-03-04T06:10:38;-1.70;99.90
12911;DHT22;6523;49.758;6.120;2023-03-04T06:13:04;-1.80;99.90
12911;DHT22;6523;49.758;6.120;2023-03-04T06:15:30;-1.70;99.90
12911;DHT22;6523;49.758;6.120;2023-03-04T06:17:56;-1.70;99.90
12911;DHT22;6523;49.758;6.120;2023-03-04T06:20:22;-1.70;99.90
12911;DHT22;6523;49.758;6.120;2023-03-04T06:22:48;-1.70;99.90
12911;DHT22;6523;49.758;6.120;2023-03-04T06:25:13;-1.60;99.90
12911;DHT22;6523;49.758;6.120;2023-03-04T06:27:39;-1.60;99.90
12911;DHT22;6523;49.758;6.120;2023-03-04T06:30:05;-1.60;99.90
12911;DHT22;6523;49.758;6.120;2023-03-04T06:32:31;-1.50;99.90
12911;DHT22;6523;49.758;6.120;2023-03-04T06:34:57;-1.50;99.90
12911;DHT22;6523;49.758;6.120;2023-03-04T06:37:22;-1.50;99.90
12911;DHT22;6523;49.758;6.120;2023-03-04T06:39:48;-1.50;99.90
12911;DHT22;6523;49.758;6.120;2023-03-04T06:42:14;-1.60;99.90
12911;DHT22;6523;49.758;6.120;2023-03-04T06:44:39;-1.60;99.90
12911;DHT22;6523;49.758;6.120;2023-03-04T06:47:05;-1.70;99.90
12911;DHT22;6523;49.758;6.120;2023-03-04T06:49:31;-1.60;99.90
12911;DHT22;6523;49.758;6.120;2023-03-04T06:51:56;-1.70;99.90
12911;DHT22;6523;49.758;6.120;2023-03-04T06:54:22;-1.60;99.90
12911;DHT22;6523;49.758;6.120;2023-03-04T06:56:48;-1.70;99.90
12911;DHT22;6523;49.758;6.120;2023-03-04T06:59:13;-1.70;99.90
12911;DHT22;6523;49.758;6.120;2023-03-04T07:01:39;-1.60;99.90
12911;DHT22;6523;49.758;6.120;2023-03-04T07:04:04;-1.60;99.90
12911;DHT22;6523;49.758;6.120;2023-03-04T07:06:30;-1.50;99.90
12911;DHT22;6523;49.758;6.120;2023-03-04T07:08:56;-1.40;99.90
12911;DHT22;6523;49.758;6.120;2023-03-04T07:11:22;-1.30;99.90
12911;DHT22;6523;49.758;6.120;2023-03-04T07:13:48;-1.20;99.90
12911;DHT22;6523;49.758;6.120;2023-03-04T07:16:17;-1.10;99.90
12911;DHT22;6523;49.758;6.120;2023-03-04T07:18:44;-1.00;99.90
12911;DHT22;6523;49.758;6.120;2023-03-04T07:21:11;-1.00;99.90
12911;DHT22;6523;49.758;6.120;2023-03-04T07:23:38;-1.00;99.90
12911;DHT22;6523;49.758;6.120;2023-03-04T07:26:04;-0.90;99.90
12911;DHT22;6523;49.758;6.120;2023-03-04T07:28:29;-1.00;99.90
12911;DHT22;6523;49.758;6.120;2023-03-04T07:30:55;-1.00;99.90
12911;DHT22;6523;49.758;6.120;2023-03-04T07:33:21;-0.80;99.90
12911;DHT22;6523;49.758;6.120;2023-03-04T07:35:46;-0.70;99.90
12911;DHT22;6523;49.758;6.120;2023-03-04T07:38:12;-0.60;99.90
12911;DHT22;6523;49.758;6.120;2023-03-04T07:40:37;-0.60;99.90
12911;DHT22;6523;49.758;6.120;2023-03-04T07:43:03;-0.60;99.90
12911;DHT22;6523;49.758;6.120;2023-03-04T07:45:29;-0.60;99.90
12911;DHT22;6523;49.758;6.120;2023-03-04T07:47:56;-0.60;99.90
12911;DHT22;6523;49.758;6.120;2023-03-04T07:50:21;-0.50;99.90
12911;DHT22;6523;49.758;6.120;2023-03-04T07:52:48;-0.50;99.90
12911;DHT22;6523;49.758;6.120;2023-03-04T07:55:15;-0.40;99.90
12911;DHT22;6523;49.758;6.120;2023-03-04T07:57:42;-0.30;99.90
12911;DHT22;6523;49.758;6.120;2023-03-04T08:00:10;-0.30;99.90
12911;DHT22;6523;49.758;6.120;2023-03-04T08:02:36;-0.30;99.90
12911;DHT22;6523;49.758;6.120;2023-03-04T08:05:02;-0.20;99.90
12911;DHT22;6523;49.758;6.120;2023-03-04T08:07:28;-0.10;99.90
12911;DHT22;6523;49.758;6.120;2023-03-04T08:09:54;-0.20;99.90
12911;DHT22;6523;49.758;6.120;2023-03-04T08:12:19;-0.10;99.90
12911;DHT22;6523;49.758;6.120;2023-03-04T08:14:45;-0.10;99.90
12911;DHT22;6523;49.758;6.120;2023-03-04T08:17:10;0.00;99.90
12911;DHT22;6523;49.758;6.120;2023-03-04T08:19:39;0.20;99.90
12911;DHT22;6523;49.758;6.120;2023-03-04T08:22:05;0.10;99.90
12911;DHT22;6523;49.758;6.120;2023-03-04T08:24:30;0.10;99.90
12911;DHT22;6523;49.758;6.120;2023-03-04T08:26:56;0.10;99.90
12911;DHT22;6523;49.758;6.120;2023-03-04T08:29:23;0.20;99.90
12911;DHT22;6523;49.758;6.120;2023-03-04T08:31:50;0.30;99.90
12911;DHT22;6523;49.758;6.120;2023-03-04T08:34:16;0.40;99.90
12911;DHT22;6523;49.758;6.120;2023-03-04T08:36:43;0.30;99.90
12911;DHT22;6523;49.758;6.120;2023-03-04T08:39:11;0.40;99.90
12911;DHT22;6523;49.758;6.120;2023-03-04T08:41:37;0.60;99.90
12911;DHT22;6523;49.758;6.120;2023-03-04T08:44:03;0.50;99.90
12911;DHT22;6523;49.758;6.120;2023-03-04T08:46:29;0.60;99.90
12911;DHT22;6523;49.758;6.120;2023-03-04T08:48:55;0.70;99.90
12911;DHT22;6523;49.758;6.120;2023-03-04T08:51:20;0.90;99.90
12911;DHT22;6523;49.758;6.120;2023-03-04T08:53:46;0.90;99.90
12911;DHT22;6523;49.758;6.120;2023-03-04T08:56:12;1.10;99.90
12911;DHT22;6523;49.758;6.120;2023-03-04T08:58:38;1.20;99.90
12911;DHT22;6523;49.758;6.120;2023-03-04T09:01:07;1.20;99.90
12911;DHT22;6523;49.758;6.120;2023-03-04T09:03:33;1.40;99.90
12911;DHT22;6523;49.758;6.120;2023-03-04T09:06:01;1.50;99.90
12911;DHT22;6523;49.758;6.120;2023-03-04T09:08:27;1.50;99.90
12911;DHT22;6523;49.758;6.120;2023-03-04T09:10:53;1.50;99.90
12911;DHT22;6523;49.758;6.120;2023-03-04T09:13:19;1.60;99.90
12911;DHT22;6523;49.758;6.120;2023-03-04T09:15:49;1.70;99.90
12911;DHT22;6523;49.758;6.120;2023-03-04T09:18:16;1.80;99.90
12911;DHT22;6523;49.758;6.120;2023-03-04T09:20:42;1.90;99.90
12911;DHT22;6523;49.758;6.120;2023-03-04T09:23:08;1.90;99.90
12911;DHT22;6523;49.758;6.120;2023-03-04T09:25:35;1.90;99.90
12911;DHT22;6523;49.758;6.120;2023-03-04T09:28:01;2.00;99.90
12911;DHT22;6523;49.758;6.120;2023-03-04T09:30:27;2.10;99.90
12911;DHT22;6523;49.758;6.120;2023-03-04T09:32:53;2.10;99.90
12911;DHT22;6523;49.758;6.120;2023-03-04T09:35:18;2.20;99.90
12911;DHT22;6523;49.758;6.120;2023-03-04T09:37:44;2.20;99.90
12911;DHT22;6523;49.758;6.120;2023-03-04T09:40:18;2.30;99.90
12911;DHT22;6523;49.758;6.120;2023-03-04T09:42:55;2.40;99.90
12911;DHT22;6523;49.758;6.120;2023-03-04T09:45:27;2.60;99.90
12911;DHT22;6523;49.758;6.120;2023-03-04T09:47:55;2.60;99.90
12911;DHT22;6523;49.758;6.120;2023-03-04T09:50:21;2.80;99.90
12911;DHT22;6523;49.758;6.120;2023-03-04T09:52:53;2.90;99.90
12911;DHT22;6523;49.758;6.120;2023-03-04T09:55:28;3.20;99.90
12911;DHT22;6523;49.758;6.120;2023-03-04T09:58:02;3.30;99.90
12911;DHT22;6523;49.758;6.120;2023-03-04T10:00:44;3.30;99.90
12911;DHT22;6523;49.758;6.120;2023-03-04T10:03:20;3.50;99.90
12911;DHT22;6523;49.758;6.120;2023-03-04T10:05:56;3.60;99.90
12911;DHT22;6523;49.758;6.120;2023-03-04T10:10:57;3.80;99.90
12911;DHT22;6523;49.758;6.120;2023-03-04T10:13:36;3.80;99.90
12911;DHT22;6523;49.758;6.120;2023-03-04T10:16:06;3.80;99.90
12911;DHT22;6523;49.758;6.120;2023-03-04T10:18:39;3.90;99.90
12911;DHT22;6523;49.758;6.120;2023-03-04T10:21:32;3.90;99.90
12911;DHT22;6523;49.758;6.120;2023-03-04T10:24:10;3.90;99.90
12911;DHT22;6523;49.758;6.120;2023-03-04T10:26:37;4.00;99.90
12911;DHT22;6523;49.758;6.120;2023-03-04T10:29:03;3.90;99.90
12911;DHT22;6523;49.758;6.120;2023-03-04T10:31:37;3.90;99.90
12911;DHT22;6523;49.758;6.120;2023-03-04T10:34:03;4.00;99.90
12911;DHT22;6523;49.758;6.120;2023-03-04T10:39:21;4.10;99.90
12911;DHT22;6523;49.758;6.120;2023-03-04T10:42:05;4.10;99.90
12911;DHT22;6523;49.758;6.120;2023-03-04T10:44:33;3.90;99.90
12911;DHT22;6523;49.758;6.120;2023-03-04T10:46:59;4.00;99.90
12911;DHT22;6523;49.758;6.120;2023-03-04T10:49:27;4.10;99.90
12911;DHT22;6523;49.758;6.120;2023-03-04T10:57:12;4.30;99.90
12911;DHT22;6523;49.758;6.120;2023-03-04T10:59:59;4.20;99.90
12911;DHT22;6523;49.758;6.120;2023-03-04T11:02:26;4.20;99.90
12911;DHT22;6523;49.758;6.120;2023-03-04T11:07:31;4.30;99.90
12911;DHT22;6523;49.758;6.120;2023-03-04T11:13:01;4.50;99.90
12911;DHT22;6523;49.758;6.120;2023-03-04T11:15:29;4.50;99.90
12911;DHT22;6523;49.758;6.120;2023-03-04T11:18:05;4.40;99.90
12911;DHT22;6523;49.758;6.120;2023-03-04T11:20:34;4.30;99.90
12911;DHT22;6523;49.758;6.120;2023-03-04T11:23:04;4.50;99.90
12911;DHT22;6523;49.758;6.120;2023-03-04T11:25:35;4.70;99.90
12911;DHT22;6523;49.758;6.120;2023-03-04T11:28:14;4.70;99.90
12911;DHT22;6523;49.758;6.120;2023-03-04T11:30:54;4.90;99.90
12911;DHT22;6523;49.758;6.120;2023-03-04T11:33:35;4.90;99.90
12911;DHT22;6523;49.758;6.120;2023-03-04T11:38:35;5.10;99.90
12911;DHT22;6523;49.758;6.120;2023-03-04T11:41:12;5.10;99.90
12911;DHT22;6523;49.758;6.120;2023-03-04T11:43:41;5.20;99.90
12911;DHT22;6523;49.758;6.120;2023-03-04T11:46:45;5.30;99.90
12911;DHT22;6523;49.758;6.120;2023-03-04T11:49:31;5.20;99.90
12911;DHT22;6523;49.758;6.120;2023-03-04T11:52:29;5.10;99.90
12911;DHT22;6523;49.758;6.120;2023-03-04T11:55:37;5.10;99.90
12911;DHT22;6523;49.758;6.120;2023-03-04T12:01:12;5.10;99.90
12911;DHT22;6523;49.758;6.120;2023-03-04T12:09:13;5.20;99.90
12911;DHT22;6523;49.758;6.120;2023-03-04T12:12:18;5.30;99.90
12911;DHT22;6523;49.758;6.120;2023-03-04T12:15:11;5.30;99.90
12911;DHT22;6523;49.758;6.120;2023-03-04T12:23:14;5.00;99.90
12911;DHT22;6523;49.758;6.120;2023-03-04T12:28:36;5.00;99.90
12911;DHT22;6523;49.758;6.120;2023-03-04T12:36:24;4.90;99.90
12911;DHT22;6523;49.758;6.120;2023-03-04T12:39:13;4.90;99.90
12911;DHT22;6523;49.758;6.120;2023-03-04T12:41:58;5.00;99.90
12911;DHT22;6523;49.758;6.120;2023-03-04T12:44:24;5.00;99.90
12911;DHT22;6523;49.758;6.120;2023-03-04T12:55:45;5.00;99.90
12911;DHT22;6523;49.758;6.120;2023-03-04T12:58:21;5.00;99.90
12911;DHT22;6523;49.758;6.120;2023-03-04T13:03:19;5.00;99.90
12911;DHT22;6523;49.758;6.120;2023-03-04T13:14:03;5.30;99.90
12911;DHT22;6523;49.758;6.120;2023-03-04T13:16:37;5.30;99.90
12911;DHT22;6523;49.758;6.120;2023-03-04T13:38:33;5.40;99.90
12911;DHT22;6523;49.758;6.120;2023-03-04T13:51:26;5.20;99.90
12911;DHT22;6523;49.758;6.120;2023-03-04T13:56:45;5.30;99.90
12911;DHT22;6523;49.758;6.120;2023-03-04T14:04:17;5.20;99.90
12911;DHT22;6523;49.758;6.120;2023-03-04T14:06:50;5.20;99.90
12911;DHT22;6523;49.758;6.120;2023-03-04T14:09:22;5.20;99.90
12911;DHT22;6523;49.758;6.120;2023-03-04T14:11:50;5.30;99.90
12911;DHT22;6523;49.758;6.120;2023-03-04T14:14:23;5.30;99.90
12911;DHT22;6523;49.758;6.120;2023-03-04T14:16:52;5.20;99.90
12911;DHT22;6523;49.758;6.120;2023-03-04T14:21:50;5.30;99.90
12911;DHT22;6523;49.758;6.120;2023-03-04T14:24:18;5.30;99.90
12911;DHT22;6523;49.758;6.120;2023-03-04T14:26:44;5.30;99.90
12911;DHT22;6523;49.758;6.120;2023-03-04T14:29:25;5.40;99.90
12911;DHT22;6523;49.758;6.120;2023-03-04T14:31:53;5.30;99.90
12911;DHT22;6523;49.758;6.120;2023-03-04T14:36:49;5.20;99.90
12911;DHT22;6523;49.758;6.120;2023-03-04T14:39:17;5.30;99.90
12911;DHT22;6523;49.758;6.120;2023-03-04T14:41:44;5.30;99.90
12911;DHT22;6523;49.758;6.120;2023-03-04T14:46:51;5.50;99.90
12911;DHT22;6523;49.758;6.120;2023-03-04T14:49:18;5.70;99.90
12911;DHT22;6523;49.758;6.120;2023-03-04T14:51:51;5.70;99.90
12911;DHT22;6523;49.758;6.120;2023-03-04T14:56:55;5.60;99.90
12911;DHT22;6523;49.758;6.120;2023-03-04T14:59:32;5.50;99.90
12911;DHT22;6523;49.758;6.120;2023-03-04T15:02:29;5.60;99.90
12911;DHT22;6523;49.758;6.120;2023-03-04T15:05:07;5.50;99.90
12911;DHT22;6523;49.758;6.120;2023-03-04T15:07:35;5.50;99.90
12911;DHT22;6523;49.758;6.120;2023-03-04T15:10:05;5.50;99.90
12911;DHT22;6523;49.758;6.120;2023-03-04T15:12:34;5.50;99.90
12911;DHT22;6523;49.758;6.120;2023-03-04T15:15:28;5.30;99.90
12911;DHT22;6523;49.758;6.120;2023-03-04T15:17:57;5.30;99.90
12911;DHT22;6523;49.758;6.120;2023-03-04T15:20:31;5.40;99.90
12911;DHT22;6523;49.758;6.120;2023-03-04T15:23:00;5.40;99.90
12911;DHT22;6523;49.758;6.120;2023-03-04T15:25:26;5.40;99.90
12911;DHT22;6523;49.758;6.120;2023-03-04T15:27:52;5.40;99.90
12911;DHT22;6523;49.758;6.120;2023-03-04T15:30:25;5.40;99.90
12911;DHT22;6523;49.758;6.120;2023-03-04T15:32:53;5.40;99.90
12911;DHT22;6523;49.758;6.120;2023-03-04T15:35:19;5.30;99.90
12911;DHT22;6523;49.758;6.120;2023-03-04T15:37:47;5.30;99.90
12911;DHT22;6523;49.758;6.120;2023-03-04T15:42:51;5.40;99.90
12911;DHT22;6523;49.758;6.120;2023-03-04T15:45:28;5.40;99.90
12911;DHT22;6523;49.758;6.120;2023-03-04T15:47:55;5.40;99.90
12911;DHT22;6523;49.758;6.120;2023-03-04T15:50:21;5.40;99.90
12911;DHT22;6523;49.758;6.120;2023-03-04T15:52:50;5.30;99.90
12911;DHT22;6523;49.758;6.120;2023-03-04T15:55:19;5.30;99.90
12911;DHT22;6523;49.758;6.120;2023-03-04T15:57:47;5.20;99.90
12911;DHT22;6523;49.758;6.120;2023-03-04T16:00:15;5.30;99.90
12911;DHT22;6523;49.758;6.120;2023-03-04T16:02:41;5.30;99.90
12911;DHT22;6523;49.758;6.120;2023-03-04T16:05:07;5.20;99.90
12911;DHT22;6523;49.758;6.120;2023-03-04T16:07:33;5.20;99.90
12911;DHT22;6523;49.758;6.120;2023-03-04T16:10:02;5.20;99.90
12911;DHT22;6523;49.758;6.120;2023-03-04T16:12:29;5.20;99.90
12911;DHT22;6523;49.758;6.120;2023-03-04T16:14:54;5.20;99.90
12911;DHT22;6523;49.758;6.120;2023-03-04T16:17:20;5.20;99.90
12911;DHT22;6523;49.758;6.120;2023-03-04T16:19:46;5.20;99.90
12911;DHT22;6523;49.758;6.120;2023-03-04T16:22:20;5.20;99.90
12911;DHT22;6523;49.758;6.120;2023-03-04T16:24:51;5.10;99.90
12911;DHT22;6523;49.758;6.120;2023-03-04T16:27:19;5.10;99.90
12911;DHT22;6523;49.758;6.120;2023-03-04T16:29:46;5.10;99.90
12911;DHT22;6523;49.758;6.120;2023-03-04T16:32:13;5.10;99.90
12911;DHT22;6523;49.758;6.120;2023-03-04T16:34:38;5.10;99.90
12911;DHT22;6523;49.758;6.120;2023-03-04T16:37:13;5.00;99.90
12911;DHT22;6523;49.758;6.120;2023-03-04T16:39:40;5.00;99.90
12911;DHT22;6523;49.758;6.120;2023-03-04T16:42:14;5.00;99.90
12911;DHT22;6523;49.758;6.120;2023-03-04T16:44:45;5.00;99.90
12911;DHT22;6523;49.758;6.120;2023-03-04T16:47:11;4.90;99.90
12911;DHT22;6523;49.758;6.120;2023-03-04T16:49:37;4.90;99.90
12911;DHT22;6523;49.758;6.120;2023-03-04T16:52:04;4.90;99.90
12911;DHT22;6523;49.758;6.120;2023-03-04T16:54:32;4.90;99.90
12911;DHT22;6523;49.758;6.120;2023-03-04T16:56:58;4.80;99.90
12911;DHT22;6523;49.758;6.120;2023-03-04T16:59:24;4.80;99.90
12911;DHT22;6523;49.758;6.120;2023-03-04T17:01:52;4.80;99.90
12911;DHT22;6523;49.758;6.120;2023-03-04T17:04:18;4.80;99.90
12911;DHT22;6523;49.758;6.120;2023-03-04T17:06:43;4.80;99.90
12911;DHT22;6523;49.758;6.120;2023-03-04T17:09:10;4.70;99.90
12911;DHT22;6523;49.758;6.120;2023-03-04T17:11:36;4.70;99.90
12911;DHT22;6523;49.758;6.120;2023-03-04T17:14:02;4.60;99.90
12911;DHT22;6523;49.758;6.120;2023-03-04T17:16:27;4.60;99.90
12911;DHT22;6523;49.758;6.120;2023-03-04T17:18:54;4.60;99.90
12911;DHT22;6523;49.758;6.120;2023-03-04T17:21:23;4.60;99.90
12911;DHT22;6523;49.758;6.120;2023-03-04T17:23:49;4.60;99.90
12911;DHT22;6523;49.758;6.120;2023-03-04T17:26:15;4.70;99.90
12911;DHT22;6523;49.758;6.120;2023-03-04T17:28:47;4.60;99.90
12911;DHT22;6523;49.758;6.120;2023-03-04T17:31:18;4.60;99.90
12911;DHT22;6523;49.758;6.120;2023-03-04T17:33:44;4.60;99.90
12911;DHT22;6523;49.758;6.120;2023-03-04T17:36:11;4.60;99.90
12911;DHT22;6523;49.758;6.120;2023-03-04T17:38:37;4.60;99.90
12911;DHT22;6523;49.758;6.120;2023-03-04T17:41:04;4.60;99.90
12911;DHT22;6523;49.758;6.120;2023-03-04T17:43:30;4.60;99.90
12911;DHT22;6523;49.758;6.120;2023-03-04T17:46:07;4.50;99.90
12911;DHT22;6523;49.758;6.120;2023-03-04T17:48:34;4.50;99.90
12911;DHT22;6523;49.758;6.120;2023-03-04T17:51:00;4.50;99.90